Time;durP1;ratioP1;P1;durP2;ratioP2;P2;SDS_P1;SDS_P2;PMS_P1;PMS_P2;Temp;Humidity;BMP_temperature;BMP_pressure;BME280_temperature;BME280_humidity;BME280_pressure;Samples;Min_cycle;Max_cycle;Signal;HPM_P1;HPM_P2
2022/06/27 00:01:01;;;;;;;5.93;2.97;;;17.10;99.90;;;;;;5012761;28;20280;-66
2022/06/27 00:03:28;;;;;;;6.03;2.42;;;17.10;99.90;;;;;;5030826;28;20216;-66
2022/06/27 00:05:55;;;;;;;6.57;3.03;;;17.30;99.90;;;;;;4996393;28;20668;-66
2022/06/27 00:08:23;;;;;;;4.75;3.00;;;17.30;99.90;;;;;;5029078;28;20240;-66
2022/06/27 00:10:50;;;;;;;7.97;2.85;;;17.30;99.90;;;;;;5003114;28;21091;-66
2022/06/27 00:13:17;;;;;;;5.97;2.72;;;17.20;99.90;;;;;;5029155;28;20228;-65
2022/06/27 00:15:44;;;;;;;5.15;2.47;;;17.30;99.90;;;;;;5011672;28;20210;-65
2022/06/27 00:18:10;;;;;;;7.28;2.85;;;17.30;99.90;;;;;;5019174;28;20213;-65
2022/06/27 00:20:37;;;;;;;4.80;2.65;;;17.30;99.90;;;;;;5019049;28;20214;-65
2022/06/27 00:23:04;;;;;;;3.10;2.42;;;17.20;99.90;;;;;;5002358;28;20228;-65
2022/06/27 00:25:33;;;;;;;3.25;2.03;;;17.30;99.90;;;;;;5025571;28;20209;-65
2022/06/27 00:27:59;;;;;;;3.35;2.05;;;17.30;99.90;;;;;;5019178;28;20240;-65
2022/06/27 00:30:26;;;;;;;6.35;2.28;;;17.50;99.90;;;;;;4999973;28;20210;-65
2022/06/27 00:32:54;;;;;;;4.05;2.47;;;17.00;99.90;;;;;;4996538;28;20607;-64
2022/06/27 00:35:20;;;;;;;2.95;2.13;;;17.00;99.90;;;;;;5033001;28;20640;-65
2022/06/27 00:37:47;;;;;;;5.13;2.65;;;16.90;99.90;;;;;;4998456;28;20205;-65
2022/06/27 00:40:14;;;;;;;4.53;2.65;;;16.80;99.90;;;;;;5017597;28;20209;-65
2022/06/27 00:42:43;;;;;;;2.15;1.83;;;16.80;99.90;;;;;;5022000;28;20225;-65
2022/06/27 00:45:10;;;;;;;1.90;1.80;;;16.70;99.90;;;;;;5007816;28;20633;-65
2022/06/27 00:47:37;;;;;;;3.75;1.83;;;16.90;99.90;;;;;;5011821;28;20201;-65
2022/06/27 00:50:05;;;;;;;4.15;2.20;;;16.90;99.90;;;;;;5024637;28;20217;-65
2022/06/27 00:52:32;;;;;;;2.05;1.85;;;17.00;99.90;;;;;;5032813;28;20197;-65
2022/06/27 00:54:59;;;;;;;2.17;1.98;;;16.90;99.90;;;;;;5014809;28;20205;-65
2022/06/27 00:57:27;;;;;;;3.15;2.08;;;16.90;99.90;;;;;;5021490;28;20217;-65
2022/06/27 00:59:55;;;;;;;2.65;2.13;;;16.80;99.90;;;;;;5008411;28;20228;-65
2022/06/27 01:02:22;;;;;;;3.97;2.35;;;16.80;99.90;;;;;;4997886;28;20707;-65
2022/06/27 01:04:49;;;;;;;2.67;2.30;;;17.00;99.90;;;;;;5021273;28;20205;-66
2022/06/27 01:07:16;;;;;;;5.47;2.40;;;16.80;99.90;;;;;;4999954;28;20226;-65
2022/06/27 01:09:44;;;;;;;2.60;2.40;;;16.80;99.90;;;;;;5006724;28;20226;-65
2022/06/27 01:12:11;;;;;;;6.47;2.50;;;17.00;99.90;;;;;;5016104;28;20706;-65
2022/06/27 01:14:38;;;;;;;3.13;2.40;;;16.90;99.90;;;;;;5015300;28;20216;-65
2022/06/27 01:17:07;;;;;;;8.57;2.70;;;16.90;99.90;;;;;;4985528;28;20220;-65
2022/06/27 01:19:34;;;;;;;5.38;2.40;;;16.80;99.90;;;;;;5006254;28;20213;-65
2022/06/27 01:22:00;;;;;;;3.47;2.80;;;16.70;99.90;;;;;;5025298;28;20299;-65
2022/06/27 01:24:29;;;;;;;2.80;2.40;;;16.80;99.90;;;;;;5019710;28;20616;-66
2022/06/27 01:26:56;;;;;;;6.22;2.35;;;16.90;99.90;;;;;;5030870;28;20202;-66
2022/06/27 01:29:23;;;;;;;4.80;3.17;;;16.90;99.90;;;;;;5023104;28;20221;-65
2022/06/27 01:31:50;;;;;;;2.60;2.40;;;17.00;99.90;;;;;;5018857;28;20201;-65
2022/06/27 01:34:18;;;;;;;3.60;2.75;;;17.00;99.90;;;;;;4998236;28;20795;-65
2022/06/27 01:36:46;;;;;;;4.95;2.83;;;16.90;99.90;;;;;;5020578;28;20486;-65
2022/06/27 01:39:15;;;;;;;4.65;2.67;;;16.90;99.90;;;;;;5009430;28;20201;-65
2022/06/27 01:41:45;;;;;;;3.45;2.60;;;16.90;99.90;;;;;;5023915;28;20205;-64
2022/06/27 01:44:12;;;;;;;3.45;3.15;;;16.80;99.90;;;;;;5021385;28;20201;-64
2022/06/27 01:46:41;;;;;;;3.15;2.67;;;16.80;99.90;;;;;;5027550;28;20197;-65
2022/06/27 01:49:08;;;;;;;3.50;2.72;;;16.90;99.90;;;;;;4994621;28;20232;-65
2022/06/27 01:51:35;;;;;;;4.75;2.80;;;16.80;99.90;;;;;;5032273;28;20201;-66
2022/06/27 01:54:02;;;;;;;3.03;2.72;;;16.90;99.90;;;;;;5029863;28;20304;-65
2022/06/27 01:56:30;;;;;;;5.47;2.47;;;16.90;99.90;;;;;;5013992;28;20312;-65
2022/06/27 01:58:58;;;;;;;2.75;2.33;;;13.30;99.90;;;;;;5020757;28;21740;-65
2022/06/27 02:01:26;;;;;;;2.83;2.25;;;16.90;99.90;;;;;;5030189;28;20214;-65
2022/06/27 02:03:53;;;;;;;4.47;2.80;;;16.80;99.90;;;;;;5006619;28;24229;-65
2022/06/27 02:06:21;;;;;;;3.25;2.80;;;16.80;99.90;;;;;;5027601;28;24185;-65
2022/06/27 02:08:51;;;;;;;4.13;2.70;;;15.50;99.90;;;;;;5011587;28;20221;-65
2022/06/27 02:11:19;;;;;;;2.95;2.50;;;16.70;99.90;;;;;;5003765;28;20204;-63
2022/06/27 02:13:45;;;;;;;3.58;2.72;;;16.60;99.90;;;;;;5019149;28;20228;-63
2022/06/27 02:16:15;;;;;;;2.97;2.63;;;17.00;99.90;;;;;;5004736;28;20210;-63
2022/06/27 02:18:43;;;;;;;5.15;2.35;;;16.30;99.90;;;;;;5007127;28;20221;-65
2022/06/27 02:21:11;;;;;;;2.30;2.10;;;16.40;99.90;;;;;;5012245;28;20208;-64
2022/06/27 02:23:38;;;;;;;3.28;2.03;;;16.40;99.90;;;;;;5022717;28;20194;-65
2022/06/27 02:26:07;;;;;;;3.08;2.10;;;16.10;99.90;;;;;;5021129;28;20664;-64
2022/06/27 02:28:35;;;;;;;2.15;1.88;;;16.30;99.90;;;;;;5012274;28;20232;-64
2022/06/27 02:31:03;;;;;;;1.85;1.75;;;16.20;99.90;;;;;;5013456;28;20226;-64
2022/06/27 02:33:36;;;;;;;5.53;2.08;;;16.10;99.90;;;;;;5020340;28;20644;-64
2022/06/27 02:36:04;;;;;;;2.78;1.85;;;16.20;99.90;;;;;;5011367;28;20284;-64
2022/06/27 02:38:32;;;;;;;2.38;2.10;;;16.20;99.90;;;;;;5022659;28;20224;-64
2022/06/27 02:41:00;;;;;;;2.47;2.00;;;16.20;99.90;;;;;;5013034;28;21417;-64
2022/06/27 02:43:29;;;;;;;1.95;1.75;;;16.20;99.90;;;;;;5015973;28;20201;-65
2022/06/27 02:45:57;;;;;;;2.03;1.83;;;16.20;99.90;;;;;;5022949;28;20215;-64
2022/06/27 02:48:25;;;;;;;3.03;1.80;;;16.20;99.90;;;;;;5029955;28;20224;-64
2022/06/27 02:50:56;;;;;;;3.20;1.88;;;16.20;99.90;;;;;;4999437;28;21154;-64
2022/06/27 02:53:27;;;;;;;2.05;1.85;;;16.20;99.90;;;;;;5024679;28;20197;-64
2022/06/27 02:55:56;;;;;;;2.88;1.77;;;16.20;99.90;;;;;;5029727;28;20650;-64
2022/06/27 02:58:33;;;;;;;2.42;1.80;;;16.20;99.90;;;;;;5018513;28;20200;-64
2022/06/27 03:01:03;;;;;;;3.85;1.83;;;16.20;99.90;;;;;;5031692;28;20312;-64
2022/06/27 03:03:33;;;;;;;3.40;1.90;;;16.30;99.90;;;;;;5017996;28;20843;-64
2022/06/27 03:06:03;;;;;;;2.35;1.90;;;16.50;99.90;;;;;;5008203;28;20781;-64
2022/06/27 03:08:41;;;;;;;3.20;2.03;;;16.30;99.90;;;;;;5028832;28;20201;-64
2022/06/27 03:11:10;;;;;;;2.22;2.03;;;16.40;99.90;;;;;;5029560;28;20658;-64
2022/06/27 03:13:37;;;;;;;4.63;2.08;;;16.40;99.90;;;;;;4999247;28;20234;-64
2022/06/27 03:16:04;;;;;;;2.58;2.38;;;16.50;99.90;;;;;;5028941;28;20198;-65
2022/06/27 03:18:31;;;;;;;5.40;2.17;;;16.60;99.90;;;;;;5012290;28;20229;-64
2022/06/27 03:20:59;;;;;;;1.98;1.83;;;;;;;;;;5018697;28;21030;-64
2022/06/27 03:23:27;;;;;;;1.70;1.60;;;16.40;99.90;;;;;;4998710;28;20201;-65
2022/06/27 03:25:54;;;;;;;2.20;1.65;;;16.30;99.90;;;;;;5011831;28;20239;-64
2022/06/27 03:28:21;;;;;;;2.83;1.83;;;16.60;99.90;;;;;;4998980;28;20221;-65
2022/06/27 03:30:48;;;;;;;6.45;2.45;;;16.30;99.90;;;;;;5016096;28;20201;-66
2022/06/27 03:33:15;;;;;;;6.43;2.75;;;16.20;99.90;;;;;;5018022;28;20213;-66
2022/06/27 03:35:42;;;;;;;3.08;1.85;;;16.00;99.90;;;;;;5029663;28;20275;-66
2022/06/27 03:38:12;;;;;;;9.90;2.05;;;15.80;99.90;;;;;;5003025;28;20210;-65
2022/06/27 03:40:40;;;;;;;4.38;2.10;;;15.60;99.90;;;;;;5003837;28;20241;-66
2022/06/27 03:43:07;;;;;;;5.80;1.70;;;15.50;99.90;;;;;;4992200;28;21024;-66
2022/06/27 03:45:34;;;;;;;3.97;1.60;;;15.70;99.90;;;;;;5009919;28;20230;-65
2022/06/27 03:48:03;;;;;;;2.40;1.92;;;15.60;99.90;;;;;;5011184;28;20213;-65
2022/06/27 03:50:29;;;;;;;2.55;1.92;;;15.40;99.90;;;;;;5019856;28;20681;-65
2022/06/27 03:52:57;;;;;;;2.15;1.77;;;15.60;99.90;;;;;;5007459;28;20214;-64
2022/06/27 03:55:24;;;;;;;2.80;1.92;;;15.60;99.90;;;;;;5004879;28;20198;-65
2022/06/27 03:57:55;;;;;;;5.57;1.90;;;15.70;99.90;;;;;;5007736;28;20225;-66
2022/06/27 04:00:23;;;;;;;3.15;1.92;;;15.80;99.90;;;;;;5000701;28;20747;-66
2022/06/27 04:02:50;;;;;;;3.80;1.67;;;15.80;99.90;;;;;;5022417;28;20204;-65
2022/06/27 04:05:17;;;;;;;5.05;1.80;;;15.80;99.90;;;;;;5012090;28;20211;-65
2022/06/27 04:07:44;;;;;;;4.47;1.80;;;15.50;99.90;;;;;;5005818;28;26159;-65
2022/06/27 04:10:12;;;;;;;2.50;1.63;;;15.70;99.90;;;;;;5031906;28;20232;-65
2022/06/27 04:12:40;;;;;;;2.72;1.95;;;15.70;99.90;;;;;;4999827;28;20232;-65
2022/06/27 04:15:10;;;;;;;2.55;1.73;;;15.60;99.90;;;;;;5011781;28;20198;-65
2022/06/27 04:17:38;;;;;;;3.88;2.00;;;15.60;99.90;;;;;;5012115;28;20931;-65
2022/06/27 04:20:06;;;;;;;4.43;1.85;;;15.70;99.90;;;;;;5027526;28;20840;-65
2022/06/27 04:22:33;;;;;;;6.15;2.63;;;14.70;99.90;;;;;;5000974;28;21743;-66
2022/06/27 04:25:00;;;;;;;2.85;2.10;;;15.60;99.90;;;;;;5012541;28;20201;-65
2022/06/27 04:27:27;;;;;;;3.75;2.20;;;15.70;99.90;;;;;;5029256;28;20190;-66
2022/06/27 04:29:55;;;;;;;3.88;2.08;;;15.80;99.90;;;;;;5004125;28;20232;-67
2022/06/27 04:32:24;;;;;;;2.80;2.15;;;15.80;99.90;;;;;;5029626;28;20204;-66
2022/06/27 04:34:51;;;;;;;3.35;2.03;;;15.80;99.90;;;;;;5009461;28;20433;-66
2022/06/27 04:37:19;;;;;;;5.35;1.98;;;15.90;99.90;;;;;;5013342;28;20212;-66
2022/06/27 04:39:46;;;;;;;6.53;2.30;;;15.80;99.90;;;;;;4995306;28;20214;-66
2022/06/27 04:42:13;;;;;;;2.47;1.70;;;15.80;99.90;;;;;;5018521;28;20710;-66
2022/06/27 04:44:41;;;;;;;2.50;1.80;;;15.80;99.90;;;;;;4998755;28;20714;-66
2022/06/27 04:47:09;;;;;;;2.47;1.60;;;15.80;99.90;;;;;;5031620;28;20209;-66
2022/06/27 04:49:37;;;;;;;2.75;2.00;;;15.70;99.90;;;;;;5010275;28;21192;-65
2022/06/27 04:52:07;;;;;;;7.10;1.90;;;15.70;99.90;;;;;;5026877;28;20211;-65
2022/06/27 04:54:34;;;;;;;3.03;1.85;;;16.00;99.90;;;;;;5007011;28;20217;-66
2022/06/27 04:57:03;;;;;;;4.50;2.30;;;15.60;99.90;;;;;;5015747;28;20232;-65
2022/06/27 04:59:30;;;;;;;2.63;1.98;;;15.60;99.90;;;;;;5011855;28;20304;-65
2022/06/27 05:01:57;;;;;;;3.03;1.77;;;15.70;99.90;;;;;;5017662;28;20252;-65
2022/06/27 05:04:24;;;;;;;2.47;1.58;;;15.70;99.90;;;;;;5034362;28;21032;-64
2022/06/27 05:06:52;;;;;;;3.90;1.92;;;15.60;99.90;;;;;;5017754;28;20776;-65
2022/06/27 05:09:19;;;;;;;2.05;1.50;;;15.70;99.90;;;;;;5011815;28;21017;-64
2022/06/27 05:11:46;;;;;;;4.65;1.60;;;15.70;99.90;;;;;;5021907;28;20217;-64
2022/06/27 05:14:13;;;;;;;4.32;2.00;;;15.80;99.90;;;;;;5026033;28;20241;-64
2022/06/27 05:16:40;;;;;;;2.30;1.60;;;16.40;99.90;;;;;;5000781;28;20225;-65
2022/06/27 05:19:07;;;;;;;6.35;1.63;;;15.70;99.90;;;;;;5024759;28;20221;-65
2022/06/27 05:21:33;;;;;;;2.65;1.50;;;15.70;99.90;;;;;;5001434;28;20224;-65
2022/06/27 05:24:02;;;;;;;4.97;1.75;;;15.70;99.90;;;;;;5027994;28;20201;-65
2022/06/27 05:26:29;;;;;;;2.10;1.70;;;15.80;99.90;;;;;;5010708;28;20201;-66
2022/06/27 05:28:56;;;;;;;5.70;1.90;;;15.80;99.90;;;;;;5022160;28;20209;-65
2022/06/27 05:31:23;;;;;;;2.58;1.60;;;15.70;99.90;;;;;;5017828;28;20232;-65
2022/06/27 05:33:50;;;;;;;6.93;1.90;;;15.80;99.90;;;;;;5017347;28;20201;-65
2022/06/27 05:36:17;;;;;;;5.05;1.70;;;15.80;99.90;;;;;;5029008;28;20204;-65
2022/06/27 05:38:44;;;;;;;1.50;1.40;;;15.80;99.90;;;;;;5030805;28;20202;-65
2022/06/27 05:41:12;;;;;;;1.98;1.77;;;15.90;99.90;;;;;;4999809;28;20214;-65
2022/06/27 05:43:39;;;;;;;2.38;1.60;;;16.00;99.90;;;;;;5015936;28;20650;-65
2022/06/27 05:46:06;;;;;;;1.55;1.45;;;16.00;99.90;;;;;;5014448;28;20683;-65
2022/06/27 05:48:33;;;;;;;1.70;1.60;;;16.10;99.90;;;;;;5031858;28;20610;-65
2022/06/27 05:51:00;;;;;;;3.30;2.28;;;16.20;99.90;;;;;;5030660;28;20237;-65
2022/06/27 05:53:28;;;;;;;4.22;2.30;;;16.70;99.90;;;;;;5026817;28;20225;-66
2022/06/27 05:55:55;;;;;;;2.60;2.08;;;16.50;99.90;;;;;;5017986;28;20244;-65
2022/06/27 05:58:23;;;;;;;5.28;2.10;;;16.50;99.90;;;;;;5027970;28;20228;-66
2022/06/27 06:00:50;;;;;;;2.30;1.80;;;16.40;99.90;;;;;;5017685;28;20209;-66
2022/06/27 06:03:17;;;;;;;2.03;1.83;;;16.30;99.90;;;;;;5029281;28;20684;-66
2022/06/27 06:05:44;;;;;;;2.67;1.85;;;16.20;99.90;;;;;;5034957;28;20894;-65
2022/06/27 06:08:11;;;;;;;3.05;1.80;;;16.30;99.90;;;;;;5035285;28;20197;-65
2022/06/27 06:10:38;;;;;;;2.80;1.90;;;16.30;99.90;;;;;;5033064;28;20222;-65
2022/06/27 06:13:06;;;;;;;4.72;1.77;;;16.30;99.90;;;;;;5006030;28;20245;-66
2022/06/27 06:15:36;;;;;;;3.22;1.77;;;14.80;99.90;;;;;;5008620;28;20682;-66
2022/06/27 06:18:03;;;;;;;5.22;2.00;;;16.30;99.90;;;;;;5038656;28;20222;-65
2022/06/27 06:20:32;;;;;;;2.75;1.88;;;16.50;99.90;;;;;;5027529;28;20609;-65
2022/06/27 06:22:59;;;;;;;5.93;1.95;;;16.40;99.90;;;;;;5038148;28;20189;-66
2022/06/27 06:25:26;;;;;;;3.10;2.05;;;16.30;99.90;;;;;;5034923;28;20288;-66
2022/06/27 06:27:56;;;;;;;2.50;1.80;;;16.40;99.90;;;;;;5022103;28;20295;-65
2022/06/27 06:30:24;;;;;;;3.08;1.77;;;16.40;99.90;;;;;;5023220;28;20702;-66
2022/06/27 06:32:52;;;;;;;7.43;2.40;;;16.30;99.90;;;;;;5030473;28;20305;-66
2022/06/27 06:35:19;;;;;;;5.15;1.85;;;16.50;99.90;;;;;;5015320;28;20206;-66
2022/06/27 06:37:46;;;;;;;3.20;2.15;;;16.60;99.90;;;;;;5026674;28;20225;-66
2022/06/27 06:40:14;;;;;;;4.15;1.90;;;16.60;99.90;;;;;;5015852;28;20198;-66
2022/06/27 06:42:41;;;;;;;4.57;2.22;;;16.60;99.90;;;;;;5033420;28;20201;-66
2022/06/27 06:45:08;;;;;;;3.60;1.90;;;16.60;99.90;;;;;;5003166;28;20302;-67
2022/06/27 06:47:42;;;;;;;2.58;2.15;;;16.50;99.90;;;;;;5019730;28;20752;-67
2022/06/27 06:50:12;;;;;;;2.55;2.10;;;16.60;99.90;;;;;;5024243;28;20279;-66
2022/06/27 06:52:41;;;;;;;3.15;2.08;;;16.60;99.90;;;;;;5023049;28;20227;-66
2022/06/27 06:55:09;;;;;;;3.88;2.20;;;16.70;99.90;;;;;;5021570;28;20205;-67
2022/06/27 06:57:37;;;;;;;1.85;1.75;;;16.80;99.90;;;;;;5025089;28;20351;-67
2022/06/27 07:00:06;;;;;;;6.72;2.22;;;16.70;99.90;;;;;;5006130;28;20257;-66
2022/06/27 07:02:33;;;;;;;2.83;2.50;;;16.80;99.90;;;;;;5013736;28;20226;-66
2022/06/27 07:05:01;;;;;;;3.70;2.20;;;17.60;99.90;;;;;;5015543;28;20324;-66
2022/06/27 07:07:32;;;;;;;2.70;2.20;;;16.80;99.90;;;;;;4991123;28;20201;-66
2022/06/27 07:09:59;;;;;;;2.20;2.00;;;16.80;99.90;;;;;;5021506;28;20221;-65
2022/06/27 07:12:29;;;;;;;5.53;2.80;;;16.90;99.90;;;;;;5000711;28;20237;-65
2022/06/27 07:14:56;;;;;;;2.33;2.13;;;17.10;99.90;;;;;;4987230;28;20236;-66
2022/06/27 07:17:24;;;;;;;3.15;2.47;;;17.10;99.90;;;;;;5002982;28;20308;-66
2022/06/27 07:19:52;;;;;;;3.00;2.67;;;17.10;99.90;;;;;;5004329;28;25573;-66
2022/06/27 07:22:19;;;;;;;2.85;2.13;;;17.10;99.90;;;;;;5010866;28;20229;-66
2022/06/27 07:24:48;;;;;;;2.97;2.67;;;17.10;99.90;;;;;;5030257;28;20232;-65
2022/06/27 07:27:16;;;;;;;3.30;2.53;;;17.20;99.90;;;;;;5018815;28;21260;-66
2022/06/27 07:29:43;;;;;;;2.28;2.08;;;17.10;99.90;;;;;;5015299;28;20875;-67
2022/06/27 07:32:10;;;;;;;2.38;2.03;;;17.10;99.90;;;;;;5020781;28;20217;-66
2022/06/27 07:34:37;;;;;;;2.55;2.33;;;17.20;99.90;;;;;;5004342;28;20218;-67
2022/06/27 07:37:04;;;;;;;4.03;2.03;;;17.20;99.90;;;;;;5026360;28;20198;-67
2022/06/27 07:39:31;;;;;;;3.03;2.25;;;17.20;99.90;;;;;;5018284;28;20198;-66
2022/06/27 07:42:00;;;;;;;3.25;2.55;;;17.20;99.90;;;;;;5018583;28;20214;-65
2022/06/27 07:44:27;;;;;;;7.03;2.53;;;17.20;99.90;;;;;;5017236;28;20791;-65
2022/06/27 07:46:56;;;;;;;3.88;2.60;;;17.20;99.90;;;;;;5019112;28;20209;-64
2022/06/27 07:49:22;;;;;;;3.65;2.33;;;17.30;99.90;;;;;;5028285;28;20757;-65
2022/06/27 07:51:49;;;;;;;4.65;2.72;;;17.50;99.90;;;;;;5019916;28;20226;-64
2022/06/27 07:54:19;;;;;;;7.70;2.38;;;17.40;99.90;;;;;;5022991;28;20202;-64
2022/06/27 07:56:46;;;;;;;4.35;2.83;;;17.40;99.90;;;;;;5034467;28;20223;-65
2022/06/27 07:59:15;;;;;;;4.57;2.40;;;17.60;99.90;;;;;;5029688;28;21000;-65
2022/06/27 08:01:42;;;;;;;5.68;2.47;;;17.50;99.90;;;;;;5015389;28;20690;-64
2022/06/27 08:04:11;;;;;;;7.43;3.05;;;17.50;99.90;;;;;;5017461;28;20221;-65
2022/06/27 08:06:38;;;;;;;4.68;2.85;;;17.60;99.90;;;;;;5014015;28;20249;-64
2022/06/27 08:09:06;;;;;;;3.97;2.70;;;17.50;99.90;;;;;;5019080;28;20577;-65
2022/06/27 08:11:35;;;;;;;5.18;2.90;;;17.50;99.90;;;;;;5028189;28;20859;-65
2022/06/27 08:14:05;;;;;;;3.90;2.60;;;17.60;99.90;;;;;;5024175;28;20251;-65
2022/06/27 08:16:36;;;;;;;3.10;2.78;;;17.60;99.90;;;;;;5015759;28;20302;-65
2022/06/27 08:19:04;;;;;;;3.72;2.83;;;17.60;99.90;;;;;;5026457;28;20233;-64
2022/06/27 08:21:31;;;;;;;3.17;2.75;;;17.70;99.90;;;;;;5006772;28;20225;-66
2022/06/27 08:24:00;;;;;;;3.15;2.60;;;17.70;99.90;;;;;;5024039;28;20237;-65
2022/06/27 08:26:29;;;;;;;4.00;2.75;;;17.90;99.90;;;;;;5011519;28;20354;-66
2022/06/27 08:28:58;;;;;;;4.68;3.00;;;17.80;99.90;;;;;;5005642;28;20709;-65
2022/06/27 08:31:26;;;;;;;5.95;3.33;;;17.80;99.90;;;;;;5010575;28;21247;-65
2022/06/27 08:34:01;;;;;;;2.63;2.35;;;17.80;99.90;;;;;;5030477;28;20248;-65
2022/06/27 08:36:31;;;;;;;3.42;2.80;;;17.80;99.90;;;;;;5030001;28;21226;-66
2022/06/27 08:38:58;;;;;;;4.15;3.10;;;17.80;99.90;;;;;;5013016;28;20211;-65
2022/06/27 08:41:26;;;;;;;5.93;3.22;;;18.00;99.90;;;;;;5016177;28;20843;-64
2022/06/27 08:43:58;;;;;;;3.78;2.70;;;17.80;99.90;;;;;;5008281;28;20710;-65
2022/06/27 08:46:26;;;;;;;3.90;2.50;;;17.90;99.90;;;;;;5017335;28;20232;-65
2022/06/27 08:48:55;;;;;;;3.53;2.25;;;17.90;99.90;;;;;;5009276;28;20213;-65
2022/06/27 08:51:22;;;;;;;4.90;2.08;;;17.90;99.90;;;;;;5021996;28;20324;-65
2022/06/27 08:53:52;;;;;;;2.78;2.30;;;17.90;99.90;;;;;;5012197;28;20358;-65
2022/06/27 08:56:20;;;;;;;3.45;2.22;;;17.90;99.90;;;;;;5017225;28;20217;-65
2022/06/27 08:58:48;;;;;;;3.40;2.25;;;17.80;99.90;;;;;;5024654;28;20216;-65
2022/06/27 09:01:17;;;;;;;5.97;2.08;;;17.70;99.90;;;;;;5020936;28;20263;-66
2022/06/27 09:03:58;;;;;;;2.38;2.17;;;17.70;99.90;;;;;;5015812;28;20227;-66
2022/06/27 09:06:26;;;;;;;4.30;2.17;;;18.00;99.90;;;;;;5034277;28;20205;-66
2022/06/27 09:09:05;;;;;;;2.60;1.95;;;18.00;99.90;;;;;;5028096;28;20224;-66
2022/06/27 09:11:35;;;;;;;3.70;2.15;;;18.00;99.90;;;;;;5023164;28;20221;-66
2022/06/27 09:14:03;;;;;;;3.47;2.00;;;18.20;99.90;;;;;;5017588;28;20789;-65
2022/06/27 09:16:30;;;;;;;3.75;2.55;;;18.20;99.90;;;;;;5022773;28;20201;-65
2022/06/27 09:18:58;;;;;;;4.38;1.77;;;18.10;99.90;;;;;;5011324;28;20714;-65
2022/06/27 09:21:27;;;;;;;1.80;1.70;;;18.00;99.90;;;;;;5030572;28;20205;-65
2022/06/27 09:23:55;;;;;;;3.05;2.08;;;18.20;99.90;;;;;;5026933;28;20204;-65
2022/06/27 09:26:25;;;;;;;2.05;1.85;;;18.30;99.90;;;;;;5014870;28;20213;-65
2022/06/27 09:28:54;;;;;;;2.63;1.77;;;18.20;99.90;;;;;;5008002;28;20202;-65
2022/06/27 09:31:35;;;;;;;2.58;1.95;;;18.30;99.90;;;;;;5019472;28;20229;-65
2022/06/27 09:34:14;;;;;;;5.38;2.10;;;18.10;99.90;;;;;;5011054;28;20202;-65
2022/06/27 09:36:43;;;;;;;1.88;1.70;;;18.40;99.90;;;;;;5023105;28;20237;-64
2022/06/27 09:39:28;;;;;;;4.18;2.00;;;18.20;99.90;;;;;;5028995;28;20205;-64
2022/06/27 09:41:58;;;;;;;2.53;1.75;;;18.30;99.90;;;;;;5014086;28;20221;-65
2022/06/27 09:44:29;;;;;;;2.38;1.85;;;18.30;99.90;;;;;;5017158;28;20923;-66
2022/06/27 09:47:03;;;;;;;2.28;2.05;;;18.30;99.90;;;;;;5018261;28;20687;-66
2022/06/27 09:49:33;;;;;;;4.20;2.10;;;18.20;99.90;;;;;;5014981;28;20212;-66
2022/06/27 09:52:05;;;;;;;3.33;2.30;;;18.30;99.90;;;;;;5020203;28;20236;-65
2022/06/27 09:54:33;;;;;;;4.65;2.05;;;18.20;99.90;;;;;;5019814;28;20228;-65
2022/06/27 09:57:01;;;;;;;2.70;2.28;;;18.10;99.90;;;;;;5010292;28;20216;-66
2022/06/27 09:59:29;;;;;;;2.95;2.35;;;18.10;99.90;;;;;;5011839;28;20202;-67
2022/06/27 10:01:57;;;;;;;2.00;1.80;;;18.10;99.90;;;;;;5024916;28;20596;-66
2022/06/27 10:04:26;;;;;;;3.28;1.95;;;16.60;99.90;;;;;;5001863;28;20583;-66
2022/06/27 10:06:55;;;;;;;5.30;2.60;;;18.30;99.90;;;;;;5027885;28;20585;-67
2022/06/27 10:09:24;;;;;;;4.75;2.10;;;18.30;99.90;;;;;;5018432;28;20233;-66
2022/06/27 10:12:23;;;;;;;3.15;2.20;;;18.50;99.90;;;;;;5012734;28;20314;-65
2022/06/27 10:15:25;;;;;;;3.22;2.10;;;18.30;99.90;;;;;;5014938;28;20719;-66
2022/06/27 10:17:55;;;;;;;2.97;2.20;;;18.30;99.90;;;;;;5006577;28;20682;-65
2022/06/27 10:20:38;;;;;;;1.92;1.75;;;18.50;99.90;;;;;;5015918;28;20220;-66
2022/06/27 10:33:51;;;;;;;3.80;2.33;;;18.40;99.90;;;;;;5044522;27;21175;-64
2022/06/27 10:36:21;;;;;;;2.70;2.40;;;18.50;99.90;;;;;;5052235;28;20197;-64
2022/06/27 10:38:52;;;;;;;4.13;2.33;;;18.50;99.90;;;;;;5043594;28;20308;-64
2022/06/27 10:41:39;;;;;;;3.72;3.05;;;18.40;99.90;;;;;;5046968;28;20205;-64
2022/06/27 10:44:31;;;;;;;4.75;2.30;;;18.50;99.90;;;;;;5023507;28;20340;-64
2022/06/27 10:46:58;;;;;;;5.03;2.58;;;18.50;99.90;;;;;;5039248;28;20205;-64
2022/06/27 10:49:28;;;;;;;2.65;2.42;;;18.40;99.90;;;;;;5017086;28;20620;-65
2022/06/27 10:52:32;;;;;;;3.92;1.95;;;18.40;99.90;;;;;;5049057;28;20582;-66
2022/06/27 10:55:00;;;;;;;2.28;2.08;;;18.50;99.90;;;;;;5050182;28;20204;-64
2022/06/27 10:57:44;;;;;;;2.42;2.22;;;19.60;99.90;;;;;;5046881;28;20193;-66
2022/06/27 11:00:27;;;;;;;3.53;2.50;;;21.70;99.90;;;;;;5018780;28;20204;-65
2022/06/27 11:02:55;;;;;;;2.78;2.38;;;18.70;99.90;;;;;;5033765;28;20200;-65
2022/06/27 11:05:23;;;;;;;6.82;2.60;;;19.00;99.90;;;;;;5018980;28;20208;-65
2022/06/27 11:07:53;;;;;;;5.35;2.83;;;19.10;99.90;;;;;;5043021;28;20209;-65
2022/06/27 11:10:21;;;;;;;2.72;2.50;;;19.10;99.90;;;;;;5043760;28;20201;-64
2022/06/27 11:12:48;;;;;;;4.55;2.85;;;19.20;99.90;;;;;;5044138;28;20229;-65
2022/06/27 11:15:15;;;;;;;3.58;2.53;;;19.20;99.90;;;;;;5015781;28;20216;-64
2022/06/27 11:17:43;;;;;;;4.57;2.97;;;19.00;99.90;;;;;;5049053;28;20212;-64
2022/06/27 11:20:12;;;;;;;3.17;2.88;;;19.10;99.90;;;;;;5018436;28;20213;-66
2022/06/27 11:22:40;;;;;;;5.07;2.90;;;19.10;99.90;;;;;;5046050;28;20197;-65
2022/06/27 11:25:08;;;;;;;3.15;2.80;;;19.00;99.90;;;;;;5043998;28;20199;-65
2022/06/27 11:27:49;;;;;;;4.57;3.55;;;19.00;99.90;;;;;;5041923;28;20194;-65
2022/06/27 11:33:25;;;;;;;6.15;3.38;;;19.00;99.90;;;;;;5042461;28;20266;-64
2022/06/27 11:35:54;;;;;;;4.57;3.45;;;19.00;99.90;;;;;;5016028;28;20616;-65
2022/06/27 11:38:27;;;;;;;4.47;2.97;;;19.10;99.90;;;;;;5044612;28;20215;-65
2022/06/27 11:41:06;;;;;;;5.35;3.10;;;19.00;99.90;;;;;;5047227;28;20203;-65
2022/06/27 11:44:01;;;;;;;4.53;3.17;;;18.90;99.90;;;;;;5028176;28;20205;-65
2022/06/27 11:46:34;;;;;;;5.07;3.22;;;18.90;99.90;;;;;;5017463;28;20206;-65
2022/06/27 11:49:03;;;;;;;5.32;3.50;;;18.80;99.90;;;;;;5032219;28;20222;-65
2022/06/27 11:51:34;;;;;;;3.53;3.15;;;18.80;99.90;;;;;;5009846;28;20222;-65
2022/06/27 11:54:05;;;;;;;7.45;3.50;;;18.80;99.90;;;;;;5030179;28;20229;-66
2022/06/27 11:56:35;;;;;;;12.60;3.75;;;18.80;99.90;;;;;;5027081;28;20207;-65
2022/06/27 11:59:03;;;;;;;5.40;4.90;;;18.80;99.90;;;;;;5032769;28;20200;-65
2022/06/27 12:01:30;;;;;;;6.22;5.63;;;18.80;99.90;;;;;;5017389;28;20328;-65
2022/06/27 12:04:15;;;;;;;8.82;8.02;;;18.80;99.90;;;;;;5008549;28;20996;-65
2022/06/27 12:06:43;;;;;;;9.82;8.68;;;18.70;99.90;;;;;;5012047;28;20296;-64
2022/06/27 12:09:12;;;;;;;9.43;8.52;;;18.60;99.90;;;;;;5020686;28;20573;-65
2022/06/27 12:11:49;;;;;;;9.77;8.23;;;18.50;99.90;;;;;;5027179;28;20217;-64
2022/06/27 12:14:16;;;;;;;14.80;9.75;;;18.90;99.90;;;;;;5017785;28;20233;-65
2022/06/27 12:16:48;;;;;;;11.27;8.73;;;18.40;99.90;;;;;;5012933;28;21083;-65
2022/06/27 12:19:16;;;;;;;8.38;7.47;;;18.30;99.90;;;;;;5026853;28;20677;-65
2022/06/27 12:21:44;;;;;;;15.57;8.55;;;19.70;99.90;;;;;;5012806;28;20208;-64
2022/06/27 12:24:12;;;;;;;10.40;7.20;;;18.50;99.90;;;;;;5016650;28;20677;-65
2022/06/27 12:26:40;;;;;;;6.68;5.93;;;18.40;99.90;;;;;;5029941;28;20201;-65
2022/06/27 12:29:07;;;;;;;9.05;5.78;;;18.40;99.90;;;;;;5029659;28;20297;-65
2022/06/27 12:31:34;;;;;;;5.13;4.63;;;18.20;99.90;;;;;;5014581;28;20208;-65
2022/06/27 12:34:02;;;;;;;5.03;4.53;;;18.30;99.90;;;;;;5006015;28;20234;-65
2022/06/27 12:36:30;;;;;;;4.82;3.60;;;18.50;99.90;;;;;;5004435;28;20634;-65
2022/06/27 12:38:58;;;;;;;4.63;3.58;;;18.20;99.90;;;;;;5016322;28;20774;-65
2022/06/27 12:41:26;;;;;;;4.90;3.55;;;18.40;99.90;;;;;;5024680;28;20197;-65
2022/06/27 12:43:53;;;;;;;4.88;3.67;;;18.40;99.90;;;;;;5017649;28;20217;-65
2022/06/27 12:46:20;;;;;;;3.05;2.75;;;;;;;;;;5016190;28;20225;-65
2022/06/27 12:48:48;;;;;;;3.22;2.63;;;18.40;99.90;;;;;;5004898;28;20279;-65
2022/06/27 12:51:16;;;;;;;3.75;2.65;;;18.50;99.90;;;;;;5014643;28;20284;-66
2022/06/27 12:53:43;;;;;;;2.70;2.50;;;18.40;99.90;;;;;;4997885;28;20310;-65
2022/06/27 12:56:10;;;;;;;2.58;2.35;;;18.40;99.90;;;;;;5029441;28;20201;-65
2022/06/27 12:58:39;;;;;;;4.13;2.42;;;18.30;99.90;;;;;;5020252;28;20683;-65
2022/06/27 13:01:05;;;;;;;3.38;2.60;;;18.30;99.90;;;;;;5032613;28;20606;-65
2022/06/27 13:03:32;;;;;;;7.45;2.83;;;18.50;99.90;;;;;;5014950;28;20944;-64
2022/06/27 13:05:59;;;;;;;5.00;2.90;;;18.30;99.90;;;;;;5030795;28;20193;-65
2022/06/27 13:08:27;;;;;;;4.28;2.70;;;18.60;99.90;;;;;;4997284;28;20929;-65
2022/06/27 13:10:54;;;;;;;3.92;2.50;;;18.50;99.90;;;;;;5029046;28;20225;-65